Time;durP1;ratioP1;P1;durP2;ratioP2;P2;SDS_P1;SDS_P2;PMS_P1;PMS_P2;Temp;Humidity;BMP_temperature;BMP_pressure;BME280_temperature;BME280_humidity;BME280_pressure;Samples;Min_cycle;Max_cycle;Signal;HPM_P1;HPM_P2
2022/05/22 00:02:09;;;;;;;5.70;1.88;;;13.70;99.90;;;;;;5133417;27;20269;-74
2022/05/22 00:04:35;;;;;;;9.77;3.72;;;13.70;99.90;;;;;;5121035;27;20232;-74
2022/05/22 00:07:01;;;;;;;5.13;1.55;;;13.60;99.90;;;;;;5131656;27;20212;-74
2022/05/22 00:09:28;;;;;;;5.68;2.33;;;13.70;99.90;;;;;;5130929;27;20200;-74
2022/05/22 00:11:54;;;;;;;6.50;2.30;;;13.60;99.90;;;;;;5132987;27;20205;-74
2022/05/22 00:14:21;;;;;;;5.53;2.15;;;13.60;99.90;;;;;;5133050;27;20208;-74
2022/05/22 00:16:47;;;;;;;6.88;2.60;;;13.70;99.90;;;;;;5121677;27;20207;-74
2022/05/22 00:19:15;;;;;;;6.80;3.20;;;13.70;99.90;;;;;;5128847;27;20201;-73
2022/05/22 00:21:41;;;;;;;6.15;3.13;;;13.70;99.90;;;;;;5132815;27;20688;-74
2022/05/22 00:24:08;;;;;;;8.02;2.60;;;13.70;99.90;;;;;;5131464;27;20193;-73
2022/05/22 00:26:34;;;;;;;5.55;2.35;;;13.80;99.90;;;;;;5132612;27;20231;-74
2022/05/22 00:29:00;;;;;;;7.88;2.83;;;13.80;99.90;;;;;;5132889;27;20173;-73
2022/05/22 00:31:26;;;;;;;4.10;1.77;;;13.70;99.90;;;;;;5132565;27;20287;-74
2022/05/22 00:33:52;;;;;;;5.93;2.40;;;13.80;99.90;;;;;;5133068;27;20211;-73
2022/05/22 00:36:17;;;;;;;7.90;2.10;;;13.70;99.90;;;;;;5132664;27;20201;-73
2022/05/22 00:38:43;;;;;;;3.72;1.52;;;13.60;99.90;;;;;;5113403;27;20212;-74
2022/05/22 00:41:09;;;;;;;3.22;1.70;;;13.60;99.90;;;;;;5114611;27;20184;-73
2022/05/22 00:43:41;;;;;;;4.20;2.10;;;13.60;99.90;;;;;;5113798;27;20246;-75
2022/05/22 00:46:08;;;;;;;7.43;2.08;;;13.60;99.90;;;;;;5119220;27;20742;-74
2022/05/22 00:48:34;;;;;;;3.42;1.35;;;13.60;99.90;;;;;;5131598;27;20204;-73
2022/05/22 00:51:08;;;;;;;6.45;2.63;;;13.60;99.90;;;;;;5130930;27;20204;-73
2022/05/22 00:53:40;;;;;;;6.70;1.75;;;13.60;99.90;;;;;;5130793;27;20216;-74
2022/05/22 00:56:08;;;;;;;3.90;2.00;;;13.60;99.90;;;;;;5132558;27;20620;-73
2022/05/22 00:58:35;;;;;;;4.85;1.65;;;13.50;99.90;;;;;;5129797;27;20238;-73
2022/05/22 01:01:02;;;;;;;3.42;1.25;;;13.40;99.90;;;;;;5132090;27;20204;-74
2022/05/22 01:03:28;;;;;;;3.10;1.33;;;13.40;99.90;;;;;;5113433;28;20237;-73
2022/05/22 01:06:24;;;;;;;7.20;2.47;;;13.30;99.90;;;;;;5131918;27;20221;-74
2022/05/22 01:08:50;;;;;;;7.82;2.55;;;13.30;99.90;;;;;;5115536;28;20211;-74
2022/05/22 01:11:27;;;;;;;5.10;1.70;;;13.30;99.90;;;;;;5113716;27;20177;-74
2022/05/22 01:14:00;;;;;;;7.17;2.10;;;13.30;99.90;;;;;;5099508;28;20546;-73
2022/05/22 01:16:26;;;;;;;5.45;2.65;;;13.20;99.90;;;;;;5118675;27;20240;-74
2022/05/22 01:18:54;;;;;;;5.45;1.60;;;13.30;99.90;;;;;;5112646;28;20239;-74
2022/05/22 01:21:23;;;;;;;7.60;2.23;;;13.20;99.90;;;;;;5131851;28;20200;-74
2022/05/22 01:23:50;;;;;;;7.70;2.90;;;13.10;99.90;;;;;;5106407;28;20741;-74
2022/05/22 01:26:16;;;;;;;5.00;2.03;;;13.10;99.90;;;;;;5131612;27;20196;-74
2022/05/22 01:28:42;;;;;;;4.38;1.98;;;13.00;99.90;;;;;;5131515;27;20642;-74
2022/05/22 01:31:08;;;;;;;6.30;1.80;;;12.90;99.90;;;;;;5131601;27;20299;-75
2022/05/22 01:33:34;;;;;;;5.47;1.83;;;13.00;99.90;;;;;;5131556;27;20583;-74
2022/05/22 01:36:00;;;;;;;6.07;2.23;;;13.00;99.90;;;;;;5113004;28;20212;-73
2022/05/22 01:38:26;;;;;;;4.67;1.43;;;13.00;99.90;;;;;;5130887;27;20697;-74
2022/05/22 01:40:52;;;;;;;10.07;1.93;;;12.80;99.90;;;;;;5130679;28;20260;-73
2022/05/22 01:43:18;;;;;;;6.70;2.17;;;12.80;99.90;;;;;;5131809;27;20201;-74
2022/05/22 01:45:45;;;;;;;6.15;2.30;;;12.80;99.90;;;;;;5122507;27;20876;-73
2022/05/22 01:48:10;;;;;;;10.47;3.00;;;12.90;99.90;;;;;;5134957;27;20204;-74
2022/05/22 01:50:38;;;;;;;4.40;1.70;;;12.80;99.90;;;;;;5116668;27;20265;-74
2022/05/22 01:53:04;;;;;;;8.13;2.30;;;12.80;99.90;;;;;;5117591;27;20646;-74
2022/05/22 01:55:30;;;;;;;7.95;2.08;;;12.80;99.90;;;;;;5116914;27;20555;-74
2022/05/22 01:57:56;;;;;;;7.07;2.03;;;12.80;99.90;;;;;;5116729;27;20223;-74
2022/05/22 02:00:24;;;;;;;8.27;2.10;;;12.80;99.90;;;;;;5134850;27;20200;-74
2022/05/22 02:02:50;;;;;;;6.77;2.27;;;12.70;99.90;;;;;;5135262;27;20701;-74
2022/05/22 02:05:16;;;;;;;6.70;2.07;;;12.70;99.90;;;;;;5116733;27;20204;-74
2022/05/22 02:10:27;;;;;;;5.53;2.77;;;12.70;99.90;;;;;;5135177;27;20254;-74
2022/05/22 02:12:53;;;;;;;5.90;2.00;;;12.70;99.90;;;;;;5135208;27;20611;-74
2022/05/22 02:15:20;;;;;;;6.10;1.70;;;12.80;99.90;;;;;;5110199;28;20229;-74
2022/05/22 02:17:45;;;;;;;7.27;2.03;;;12.80;99.90;;;;;;5125763;27;20217;-74
2022/05/22 02:20:11;;;;;;;7.07;2.10;;;12.80;99.90;;;;;;5135141;27;20185;-74
2022/05/22 02:22:45;;;;;;;5.53;1.73;;;12.80;99.90;;;;;;5134744;27;20603;-74
2022/05/22 02:25:18;;;;;;;4.63;2.40;;;12.90;99.90;;;;;;5134784;27;20215;-74
2022/05/22 02:27:44;;;;;;;10.17;2.80;;;12.90;99.90;;;;;;5118958;27;20210;-74
2022/05/22 02:30:12;;;;;;;5.70;1.77;;;12.90;99.90;;;;;;5099772;28;20213;-74
2022/05/22 02:32:38;;;;;;;8.03;1.97;;;13.00;99.90;;;;;;5112864;28;20213;-74
2022/05/22 02:35:09;;;;;;;8.60;2.13;;;12.90;99.90;;;;;;5096134;28;20174;-74
2022/05/22 02:37:52;;;;;;;4.97;1.90;;;12.90;99.90;;;;;;5113654;28;20712;-74
2022/05/22 02:40:20;;;;;;;6.77;1.57;;;12.70;99.90;;;;;;5113597;28;20254;-74
2022/05/22 02:42:48;;;;;;;6.65;1.90;;;12.80;99.90;;;;;;5105555;28;20765;-74
2022/05/22 02:45:17;;;;;;;6.23;1.97;;;12.80;99.90;;;;;;5095246;28;20213;-74
2022/05/22 02:47:42;;;;;;;6.37;2.50;;;12.70;99.90;;;;;;5113332;28;20210;-74
2022/05/22 02:50:09;;;;;;;7.20;2.17;;;12.80;99.90;;;;;;5095631;28;20173;-74
2022/05/22 02:52:35;;;;;;;6.33;2.17;;;12.80;99.90;;;;;;5113458;28;20693;-74
2022/05/22 02:55:01;;;;;;;8.23;1.97;;;12.70;99.90;;;;;;5113447;28;20209;-74
2022/05/22 02:57:27;;;;;;;6.37;2.00;;;12.70;99.90;;;;;;5113364;28;20206;-74
2022/05/22 02:59:54;;;;;;;6.17;1.87;;;12.70;99.90;;;;;;5109227;27;20213;-74
2022/05/22 03:02:20;;;;;;;4.73;1.87;;;12.70;99.90;;;;;;5091510;28;20314;-74
2022/05/22 03:04:47;;;;;;;4.40;1.93;;;12.60;99.90;;;;;;5114248;28;20674;-74
2022/05/22 03:07:15;;;;;;;5.73;2.10;;;12.60;99.90;;;;;;5128462;28;20219;-73
2022/05/22 03:09:42;;;;;;;5.47;1.80;;;12.70;99.90;;;;;;5139334;28;20213;-74
2022/05/22 03:12:11;;;;;;;5.53;1.97;;;12.60;99.90;;;;;;5121765;28;20189;-74
2022/05/22 03:14:37;;;;;;;4.53;1.70;;;12.50;99.90;;;;;;5096842;28;20210;-74
2022/05/22 03:17:02;;;;;;;7.43;2.03;;;12.50;99.90;;;;;;5119873;27;20219;-74
2022/05/22 03:19:28;;;;;;;8.87;2.23;;;12.60;99.90;;;;;;5114839;27;20208;-74
2022/05/22 03:21:53;;;;;;;6.97;1.90;;;12.70;99.90;;;;;;5113335;28;20243;-74
2022/05/22 03:24:19;;;;;;;8.23;2.60;;;12.70;99.90;;;;;;5113347;28;20289;-74
2022/05/22 03:26:45;;;;;;;4.93;1.90;;;12.80;99.90;;;;;;5094523;28;20591;-75
2022/05/22 03:29:11;;;;;;;8.00;2.20;;;12.80;99.90;;;;;;5114865;27;20186;-74
2022/05/22 03:31:37;;;;;;;10.47;2.77;;;12.80;99.90;;;;;;5104679;28;20713;-74
2022/05/22 03:34:03;;;;;;;5.87;1.90;;;12.80;99.90;;;;;;5094803;28;20620;-74
2022/05/22 03:36:29;;;;;;;6.13;2.70;;;12.90;99.90;;;;;;5112570;28;20209;-74
2022/05/22 03:38:55;;;;;;;6.20;2.00;;;12.90;99.90;;;;;;5112155;28;20213;-74
2022/05/22 03:41:20;;;;;;;7.05;2.45;;;12.90;99.90;;;;;;5112733;28;20554;-74
2022/05/22 03:43:46;;;;;;;5.77;2.37;;;12.90;99.90;;;;;;5113245;28;20186;-74
2022/05/22 03:46:12;;;;;;;9.80;2.20;;;13.00;99.90;;;;;;5093249;28;20216;-74
2022/05/22 03:48:37;;;;;;;6.67;2.13;;;12.90;99.90;;;;;;5093537;28;20631;-74
2022/05/22 03:51:03;;;;;;;4.67;2.37;;;13.00;99.90;;;;;;5112460;28;20201;-74
2022/05/22 03:53:28;;;;;;;6.60;2.50;;;13.10;99.90;;;;;;5112445;28;20181;-74
2022/05/22 03:55:54;;;;;;;9.53;2.80;;;13.10;99.90;;;;;;5112789;28;20723;-74
2022/05/22 03:58:19;;;;;;;10.70;3.17;;;14.10;99.90;;;;;;5095916;27;20205;-74
2022/05/22 04:00:45;;;;;;;9.88;3.17;;;15.00;99.90;;;;;;5085971;28;20204;-74
2022/05/22 04:03:11;;;;;;;8.98;2.60;;;15.40;99.90;;;;;;5094110;28;20202;-75
2022/05/22 04:05:37;;;;;;;6.15;1.95;;;16.00;99.90;;;;;;5111836;28;20241;-75
2022/05/22 04:08:03;;;;;;;10.93;2.97;;;17.10;99.90;;;;;;5093233;28;20169;-75
2022/05/22 04:10:28;;;;;;;5.93;2.45;;;18.20;99.90;;;;;;5111967;28;20666;-75
2022/05/22 04:12:54;;;;;;;6.50;2.28;;;18.20;99.90;;;;;;5112255;28;20208;-75
2022/05/22 04:15:21;;;;;;;5.47;2.03;;;18.20;99.90;;;;;;5112063;28;20622;-75
2022/05/22 04:17:47;;;;;;;10.63;2.63;;;18.90;99.90;;;;;;5103409;28;20685;-75
2022/05/22 04:20:15;;;;;;;10.50;2.55;;;18.90;99.90;;;;;;5111712;28;20181;-75
2022/05/22 04:25:25;;;;;;;6.90;2.20;;;18.40;99.90;;;;;;5111817;28;20220;-75
2022/05/22 04:27:51;;;;;;;5.30;2.22;;;19.40;99.90;;;;;;5108804;28;20197;-75
2022/05/22 04:30:18;;;;;;;7.65;2.40;;;20.30;99.90;;;;;;5108635;28;20212;-75
2022/05/22 04:32:45;;;;;;;6.93;2.53;;;20.80;99.90;;;;;;5111624;28;20197;-75
2022/05/22 04:35:11;;;;;;;6.20;2.25;;;21.20;99.90;;;;;;5112354;28;20177;-75
2022/05/22 04:37:36;;;;;;;5.80;1.90;;;21.90;99.90;;;;;;5110094;28;20209;-75
2022/05/22 04:40:02;;;;;;;8.55;2.70;;;22.70;99.90;;;;;;5111155;27;20217;-75
2022/05/22 04:42:27;;;;;;;8.10;2.08;;;22.00;99.90;;;;;;5111472;28;20292;-75
2022/05/22 04:44:53;;;;;;;8.63;2.90;;;21.80;99.90;;;;;;5113505;27;20245;-75
2022/05/22 04:47:18;;;;;;;9.38;2.42;;;22.20;99.90;;;;;;5113843;27;20197;-75
2022/05/22 04:49:48;;;;;;;6.55;2.30;;;23.50;99.90;;;;;;5131832;27;20541;-75
2022/05/22 04:52:14;;;;;;;5.90;2.30;;;23.50;99.90;;;;;;5113600;27;20203;-75
2022/05/22 04:54:39;;;;;;;7.70;2.38;;;24.40;99.90;;;;;;5132025;27;20192;-75
2022/05/22 04:57:05;;;;;;;10.18;2.83;;;24.90;99.90;;;;;;5113564;27;20237;-75
2022/05/22 04:59:30;;;;;;;10.52;2.42;;;24.00;99.90;;;;;;5130917;27;20641;-75
2022/05/22 05:01:56;;;;;;;5.40;2.35;;;23.30;99.90;;;;;;5132732;27;20181;-75
2022/05/22 05:04:21;;;;;;;10.45;3.03;;;22.90;99.90;;;;;;5132104;27;20345;-75
2022/05/22 05:06:47;;;;;;;6.95;2.50;;;21.80;99.90;;;;;;5131908;27;20216;-75
2022/05/22 05:09:12;;;;;;;7.82;2.40;;;21.00;99.90;;;;;;5113081;28;20292;-75
2022/05/22 05:11:38;;;;;;;11.50;2.72;;;21.00;99.90;;;;;;5132246;27;20635;-76
2022/05/22 05:14:03;;;;;;;8.13;2.65;;;20.80;99.90;;;;;;5130582;28;20181;-75
2022/05/22 05:16:29;;;;;;;7.55;2.53;;;20.40;99.90;;;;;;5108746;28;20630;-75
2022/05/22 05:18:55;;;;;;;9.00;2.60;;;20.00;99.90;;;;;;5134475;27;20197;-75
2022/05/22 05:21:20;;;;;;;6.85;2.45;;;19.50;99.90;;;;;;5117497;27;20588;-75
2022/05/22 05:23:46;;;;;;;5.78;2.05;;;19.40;99.90;;;;;;5136277;27;20236;-75
2022/05/22 05:26:11;;;;;;;7.47;2.60;;;19.40;99.90;;;;;;5136491;27;20770;-75
2022/05/22 05:28:37;;;;;;;7.30;1.88;;;19.40;99.90;;;;;;5135144;27;20205;-75
2022/05/22 05:31:03;;;;;;;6.22;2.08;;;19.70;99.90;;;;;;5135977;27;20604;-75
2022/05/22 05:33:32;;;;;;;8.75;2.85;;;19.80;99.90;;;;;;5135750;27;20225;-75
2022/05/22 05:35:57;;;;;;;6.88;2.45;;;20.00;99.90;;;;;;5117290;27;20262;-75
2022/05/22 05:38:23;;;;;;;5.32;2.00;;;21.20;99.90;;;;;;5134807;27;20169;-75
2022/05/22 05:40:49;;;;;;;6.85;2.50;;;22.80;99.90;;;;;;5136393;27;20161;-75
2022/05/22 05:43:15;;;;;;;7.35;2.03;;;24.40;99.90;;;;;;5135738;27;20196;-75
2022/05/22 05:45:42;;;;;;;9.93;2.28;;;25.30;99.90;;;;;;5128591;27;20219;-75
2022/05/22 05:48:08;;;;;;;8.15;2.65;;;25.90;99.90;;;;;;5134972;27;20583;-74
2022/05/22 05:50:34;;;;;;;5.60;2.58;;;25.10;99.90;;;;;;5135460;27;20204;-75
2022/05/22 05:53:01;;;;;;;4.65;2.20;;;25.80;99.90;;;;;;5136163;27;20197;-75
2022/05/22 05:55:28;;;;;;;8.43;2.72;;;26.10;99.90;;;;;;5135294;27;20738;-75
2022/05/22 05:57:54;;;;;;;7.93;2.63;;;26.90;99.90;;;;;;5116793;27;20203;-75
2022/05/22 06:00:22;;;;;;;7.07;2.80;;;26.00;99.90;;;;;;5133991;27;20234;-75
2022/05/22 06:02:47;;;;;;;5.47;2.38;;;23.30;99.90;;;;;;5100555;27;20201;-75
2022/05/22 06:05:13;;;;;;;6.45;2.40;;;24.70;99.90;;;;;;5135388;27;20208;-75
2022/05/22 06:07:39;;;;;;;6.60;1.92;;;23.80;99.90;;;;;;5117035;27;20236;-75
2022/05/22 06:10:07;;;;;;;6.28;2.05;;;23.00;99.90;;;;;;5116131;27;20643;-75
2022/05/22 06:12:33;;;;;;;6.95;2.42;;;23.00;99.90;;;;;;5135064;27;20255;-75
2022/05/22 06:14:58;;;;;;;8.40;2.17;;;23.80;99.90;;;;;;5128244;27;20197;-75
2022/05/22 06:17:35;;;;;;;6.05;2.85;;;25.30;99.90;;;;;;5143040;22;20230;-72
2022/05/22 06:20:06;;;;;;;5.13;2.25;;;26.30;99.90;;;;;;5114227;28;20181;-72
2022/05/22 06:22:34;;;;;;;6.07;2.50;;;27.70;99.90;;;;;;5114495;28;20209;-73
2022/05/22 06:25:00;;;;;;;9.18;2.65;;;27.90;99.90;;;;;;5095994;28;20673;-72
2022/05/22 06:27:26;;;;;;;4.82;2.35;;;27.80;99.90;;;;;;5114099;28;20280;-74
2022/05/22 06:29:51;;;;;;;6.60;2.30;;;28.60;99.90;;;;;;5112658;28;20285;-73
2022/05/22 06:32:18;;;;;;;5.78;1.92;;;28.50;99.90;;;;;;5114545;28;20181;-73
2022/05/22 06:34:47;;;;;;;6.13;1.92;;;27.10;99.90;;;;;;5096432;28;20170;-73
2022/05/22 06:37:20;;;;;;;6.13;2.15;;;27.20;99.90;;;;;;5096137;28;20707;-73
2022/05/22 06:39:49;;;;;;;8.65;2.63;;;27.60;99.90;;;;;;5104626;28;20198;-73
2022/05/22 06:42:20;;;;;;;4.60;1.88;;;27.30;99.90;;;;;;5095804;28;20197;-73
2022/05/22 06:45:00;;;;;;;7.25;2.20;;;26.10;99.90;;;;;;5095659;28;20680;-73
2022/05/22 06:47:28;;;;;;;5.78;1.90;;;25.50;99.90;;;;;;5095894;28;20247;-73
2022/05/22 06:49:54;;;;;;;7.00;1.80;;;24.90;99.90;;;;;;5114343;28;20173;-72
2022/05/22 06:52:21;;;;;;;6.45;2.13;;;25.30;99.90;;;;;;5095714;28;20202;-73
2022/05/22 06:54:47;;;;;;;7.00;1.73;;;24.70;99.90;;;;;;5114082;28;20203;-72
2022/05/22 06:57:19;;;;;;;6.38;1.83;;;24.30;99.90;;;;;;5097338;28;20201;-72
2022/05/22 06:59:46;;;;;;;4.53;2.03;;;24.40;99.90;;;;;;5115253;28;20599;-73
2022/05/22 07:02:12;;;;;;;3.95;1.42;;;25.40;99.90;;;;;;5098074;28;20613;-73
2022/05/22 07:04:38;;;;;;;4.50;1.40;;;26.60;99.90;;;;;;5098761;28;20209;-74
2022/05/22 07:07:04;;;;;;;5.50;1.98;;;26.20;99.90;;;;;;5116148;28;20243;-73
2022/05/22 07:09:29;;;;;;;5.93;2.00;;;24.90;99.90;;;;;;5113766;28;20201;-73
2022/05/22 07:11:55;;;;;;;4.97;1.80;;;23.30;99.90;;;;;;5095988;28;20649;-73
2022/05/22 07:14:22;;;;;;;5.55;1.75;;;21.90;99.90;;;;;;5092287;28;20178;-73
2022/05/22 07:16:48;;;;;;;6.88;1.63;;;21.10;99.90;;;;;;5106215;28;20190;-73
2022/05/22 07:19:15;;;;;;;6.82;1.83;;;20.70;99.90;;;;;;5114065;28;20293;-73
2022/05/22 07:21:40;;;;;;;8.27;2.05;;;20.50;99.90;;;;;;5114396;28;20347;-73
2022/05/22 07:24:06;;;;;;;5.75;1.70;;;20.20;99.90;;;;;;5113289;28;20278;-73
2022/05/22 07:26:32;;;;;;;5.95;1.90;;;19.80;99.90;;;;;;5113099;28;20223;-73
2022/05/22 07:28:58;;;;;;;5.45;1.75;;;18.90;99.90;;;;;;5113261;28;20170;-73
2022/05/22 07:31:25;;;;;;;5.72;1.92;;;18.70;99.90;;;;;;5095097;28;20205;-73
2022/05/22 07:33:52;;;;;;;5.03;2.28;;;19.40;99.90;;;;;;5095196;28;20682;-73
2022/05/22 07:36:19;;;;;;;3.22;1.42;;;20.20;99.90;;;;;;5113135;28;20206;-73
2022/05/22 07:38:45;;;;;;;5.03;1.70;;;20.70;99.90;;;;;;5112400;28;20205;-73
2022/05/22 07:41:14;;;;;;;5.72;2.13;;;21.10;99.90;;;;;;5094884;28;20646;-74
2022/05/22 07:43:40;;;;;;;4.75;1.50;;;21.10;99.90;;;;;;5094880;28;20254;-73
2022/05/22 07:46:08;;;;;;;5.57;1.80;;;21.00;99.90;;;;;;5091415;28;20271;-73
2022/05/22 07:48:33;;;;;;;2.95;1.52;;;20.80;99.90;;;;;;5111859;28;20732;-74
2022/05/22 07:51:01;;;;;;;7.93;2.55;;;21.50;99.90;;;;;;5094796;28;20205;-73
2022/05/22 07:53:28;;;;;;;6.13;1.88;;;21.70;99.90;;;;;;5112599;28;20173;-73
2022/05/22 07:55:53;;;;;;;4.05;1.67;;;21.20;99.90;;;;;;5094665;28;20180;-73
2022/05/22 07:58:21;;;;;;;4.93;1.92;;;20.90;99.90;;;;;;5111876;28;20395;-73
2022/05/22 08:00:47;;;;;;;4.88;1.75;;;20.50;99.90;;;;;;5094426;28;20228;-73
2022/05/22 08:03:14;;;;;;;3.63;2.33;;;19.90;99.90;;;;;;5112460;28;20228;-73
2022/05/22 08:05:41;;;;;;;10.07;1.98;;;19.40;99.90;;;;;;5112234;28;20595;-72
2022/05/22 08:08:07;;;;;;;4.72;1.80;;;19.10;99.90;;;;;;5093610;28;20198;-73
2022/05/22 08:10:33;;;;;;;4.32;1.42;;;19.50;99.90;;;;;;5112393;28;20201;-73
2022/05/22 08:12:59;;;;;;;2.67;1.00;;;21.80;99.90;;;;;;5094217;28;20559;-73
2022/05/22 08:15:30;;;;;;;3.40;0.90;;;22.90;99.90;;;;;;5108861;28;20212;-74
2022/05/22 08:17:56;;;;;;;2.67;1.30;;;24.60;99.90;;;;;;5111692;28;20209;-73
2022/05/22 08:20:21;;;;;;;1.95;1.00;;;26.20;99.90;;;;;;5112070;28;20173;-73
2022/05/22 08:22:47;;;;;;;3.70;0.85;;;27.10;99.90;;;;;;5113004;28;20169;-74
2022/05/22 08:25:16;;;;;;;4.05;1.40;;;26.40;99.90;;;;;;5112191;28;20216;-73
2022/05/22 08:27:42;;;;;;;3.50;0.95;;;25.20;99.90;;;;;;5111287;28;20697;-73
2022/05/22 08:30:10;;;;;;;2.75;1.02;;;24.30;99.90;;;;;;5111616;28;20208;-73
2022/05/22 08:32:38;;;;;;;4.35;1.30;;;23.70;99.90;;;;;;5112010;28;20206;-74
2022/05/22 08:35:05;;;;;;;4.22;1.42;;;22.90;99.90;;;;;;5094763;28;20201;-73
2022/05/22 08:37:31;;;;;;;6.13;1.80;;;22.10;99.90;;;;;;5093787;28;20255;-74
2022/05/22 08:39:56;;;;;;;4.85;1.23;;;21.90;99.90;;;;;;5111450;28;20614;-73
2022/05/22 08:42:41;;;;;;;5.10;1.67;;;21.50;99.90;;;;;;5093798;28;20202;-73
2022/05/22 08:45:21;;;;;;;2.33;1.08;;;20.80;99.90;;;;;;5108688;28;20744;-73
2022/05/22 08:48:14;;;;;;;4.00;1.70;;;20.40;99.90;;;;;;5103508;28;20205;-73
2022/05/22 08:50:41;;;;;;;9.70;4.70;;;19.80;99.90;;;;;;5110138;28;20670;-73
2022/05/22 08:53:14;;;;;;;10.70;5.88;;;19.60;99.90;;;;;;5112696;28;20213;-74
2022/05/22 09:01:27;;;;;;;3.08;1.55;;;19.70;99.90;;;;;;5120867;28;20212;-73
2022/05/22 09:04:05;;;;;;;4.75;1.70;;;20.00;99.90;;;;;;5104903;28;20201;-73
2022/05/22 09:06:36;;;;;;;4.43;1.27;;;20.00;99.90;;;;;;5111340;28;20212;-73
2022/05/22 09:09:03;;;;;;;3.20;1.23;;;20.10;99.90;;;;;;5111185;28;20694;-73
2022/05/22 09:11:38;;;;;;;2.70;1.13;;;20.20;99.90;;;;;;5093867;28;20178;-74
2022/05/22 09:14:30;;;;;;;6.53;1.40;;;20.10;99.90;;;;;;5111633;28;20186;-74
2022/05/22 09:17:06;;;;;;;3.67;1.27;;;20.00;99.90;;;;;;5105000;28;20270;-74
2022/05/22 09:19:37;;;;;;;5.30;1.20;;;20.00;99.90;;;;;;5111131;28;20205;-73
2022/05/22 09:22:21;;;;;;;5.75;1.25;;;20.40;99.90;;;;;;5111694;28;20285;-73
2022/05/22 09:25:10;;;;;;;5.00;1.33;;;21.40;99.90;;;;;;5103370;28;20206;-73
2022/05/22 09:28:00;;;;;;;2.63;1.25;;;21.10;99.90;;;;;;5111075;28;20247;-73
2022/05/22 09:30:36;;;;;;;4.82;1.40;;;20.90;99.90;;;;;;5111358;28;20197;-74
2022/05/22 09:33:07;;;;;;;4.53;1.13;;;21.30;99.90;;;;;;5112619;28;20189;-74
2022/05/22 09:35:59;;;;;;;3.67;1.30;;;21.70;99.90;;;;;;5111663;28;20233;-73
2022/05/22 09:38:44;;;;;;;3.80;1.20;;;22.10;99.90;;;;;;5092286;28;20203;-73
2022/05/22 09:41:31;;;;;;;4.93;1.40;;;21.90;99.90;;;;;;5112389;28;20166;-74
2022/05/22 09:44:35;;;;;;;4.22;1.30;;;21.50;99.90;;;;;;5111832;28;20193;-74
2022/05/22 09:47:09;;;;;;;3.67;1.50;;;21.10;99.90;;;;;;5105579;28;20723;-73
2022/05/22 09:50:07;;;;;;;4.10;1.90;;;20.90;99.90;;;;;;5110757;28;20216;-73
2022/05/22 09:52:46;;;;;;;4.88;1.40;;;21.40;99.90;;;;;;5111596;28;20213;-73
2022/05/22 09:55:34;;;;;;;3.28;1.10;;;21.50;99.90;;;;;;5111319;28;20254;-74
2022/05/22 09:58:15;;;;;;;5.63;1.60;;;21.10;99.90;;;;;;5104386;28;20487;-73
2022/05/22 10:00:52;;;;;;;3.53;1.20;;;21.20;99.90;;;;;;5111229;28;20213;-73
2022/05/22 10:03:44;;;;;;;3.03;1.58;;;21.00;99.90;;;;;;5111381;28;20258;-72
2022/05/22 10:06:21;;;;;;;6.00;1.40;;;20.60;99.90;;;;;;5114200;27;20240;-74
2022/05/22 10:09:34;;;;;;;6.40;1.40;;;19.90;99.90;;;;;;5106414;28;20216;-73
2022/05/22 10:12:15;;;;;;;4.90;1.23;;;20.00;99.90;;;;;;5106311;28;20201;-74
2022/05/22 10:15:07;;;;;;;3.28;1.30;;;20.20;99.90;;;;;;5115381;28;20213;-74
2022/05/22 10:18:02;;;;;;;4.03;1.42;;;20.30;99.90;;;;;;5116727;28;20232;-73
2022/05/22 10:20:43;;;;;;;6.38;2.08;;;20.20;99.90;;;;;;5114964;28;20166;-73
2022/05/22 10:23:29;;;;;;;2.72;1.65;;;19.90;99.90;;;;;;5115755;28;20170;-73
2022/05/22 10:26:14;;;;;;;5.97;1.63;;;20.10;99.90;;;;;;5115671;28;20316;-73
2022/05/22 10:29:13;;;;;;;5.97;2.25;;;20.70;99.90;;;;;;5114371;28;20213;-73
2022/05/22 10:32:01;;;;;;;4.88;1.83;;;20.60;99.90;;;;;;5115544;28;20206;-74
2022/05/22 10:34:49;;;;;;;4.88;1.63;;;21.00;99.90;;;;;;5114729;28;20209;-72
2022/05/22 10:37:27;;;;;;;3.60;1.55;;;21.50;99.90;;;;;;5114921;28;20202;-74
2022/05/22 10:39:53;;;;;;;4.65;2.15;;;21.70;99.90;;;;;;5114003;28;20225;-73
2022/05/22 10:45:42;;;;;;;5.88;1.35;;;21.20;99.90;;;;;;5111042;28;20678;-73
2022/05/22 10:48:12;;;;;;;3.83;1.45;;;21.50;99.90;;;;;;5074334;28;20231;-74
2022/05/22 10:51:01;;;;;;;4.15;1.60;;;21.70;99.90;;;;;;5113996;28;20206;-74
2022/05/22 10:53:32;;;;;;;3.42;1.65;;;21.80;99.90;;;;;;5096039;28;20789;-73
2022/05/22 10:56:19;;;;;;;2.15;1.38;;;22.40;99.90;;;;;;5114992;28;20546;-73
2022/05/22 10:58:55;;;;;;;4.70;1.40;;;22.10;99.90;;;;;;5114477;28;20206;-73
2022/05/22 11:01:23;;;;;;;4.47;1.92;;;22.00;99.90;;;;;;5114529;28;20270;-73
2022/05/22 11:04:10;;;;;;;4.32;1.50;;;21.60;99.90;;;;;;5113781;28;20202;-74
2022/05/22 11:06:38;;;;;;;5.70;1.95;;;21.40;99.90;;;;;;5095971;28;20210;-73
2022/05/22 11:09:06;;;;;;;2.30;1.38;;;21.50;99.90;;;;;;5122839;27;20710;-73
2022/05/22 11:11:34;;;;;;;5.60;2.47;;;21.10;99.90;;;;;;5114828;28;20571;-73
2022/05/22 11:14:15;;;;;;;3.72;1.00;;;20.90;99.90;;;;;;5105196;28;20174;-73
2022/05/22 11:16:41;;;;;;;4.07;1.48;;;20.90;99.90;;;;;;5112875;28;21652;-73
2022/05/22 11:19:15;;;;;;;3.65;1.27;;;21.40;99.90;;;;;;5113933;28;20586;-73
2022/05/22 11:21:55;;;;;;;4.97;1.40;;;21.80;99.90;;;;;;5095418;28;20208;-72
2022/05/22 11:24:42;;;;;;;3.58;1.58;;;22.00;99.90;;;;;;5115163;28;20697;-73
2022/05/22 11:27:21;;;;;;;3.97;1.48;;;22.40;99.90;;;;;;5115051;28;20224;-73
2022/05/22 11:29:56;;;;;;;6.40;1.17;;;22.40;99.90;;;;;;5114992;28;20201;-73
2022/05/22 11:32:49;;;;;;;5.05;1.50;;;22.00;99.90;;;;;;5115974;28;20225;-73
2022/05/22 11:35:27;;;;;;;2.35;1.00;;;22.20;99.90;;;;;;5069054;28;20668;-73
2022/05/22 11:38:13;;;;;;;3.63;1.50;;;22.10;99.90;;;;;;5115582;28;20209;-73
2022/05/22 11:40:38;;;;;;;2.05;1.10;;;22.30;99.90;;;;;;5114985;28;20205;-73
2022/05/22 11:43:25;;;;;;;2.70;1.30;;;22.20;99.90;;;;;;5115083;28;20212;-73
2022/05/22 11:46:04;;;;;;;2.55;1.42;;;22.10;99.90;;;;;;5093375;28;20210;-73
2022/05/22 11:48:50;;;;;;;3.45;1.52;;;21.90;99.90;;;;;;5114267;28;20201;-73
2022/05/22 11:51:39;;;;;;;3.83;1.00;;;22.00;99.90;;;;;;5114182;28;20554;-73
2022/05/22 11:54:26;;;;;;;4.72;1.33;;;22.10;99.90;;;;;;5114582;28;20202;-72
2022/05/22 11:57:14;;;;;;;4.95;2.28;;;22.20;99.90;;;;;;5088208;28;20586;-73
2022/05/22 11:59:49;;;;;;;3.88;1.38;;;22.00;99.90;;;;;;5084740;28;20228;-73
2022/05/22 12:02:25;;;;;;;3.17;1.02;;;21.70;99.90;;;;;;5112634;28;20162;-73
2022/05/22 12:05:32;;;;;;;4.13;1.40;;;21.70;99.90;;;;;;5106597;28;20642;-73
2022/05/22 12:08:22;;;;;;;2.00;1.02;;;21.60;99.90;;;;;;5113534;28;20262;-73
2022/05/22 12:10:55;;;;;;;5.70;2.28;;;21.60;99.90;;;;;;5115055;28;20193;-73
2022/05/22 12:13:34;;;;;;;2.47;1.00;;;21.70;99.90;;;;;;5114092;28;20276;-74
2022/05/22 12:16:10;;;;;;;4.10;1.88;;;21.90;99.90;;;;;;5110913;28;20288;-74
2022/05/22 12:19:01;;;;;;;3.65;1.60;;;22.00;99.90;;;;;;5112440;22;20715;-71
2022/05/22 12:22:04;;;;;;;6.68;1.55;;;21.90;99.90;;;;;;5089850;27;20213;-71
2022/05/22 12:24:59;;;;;;;5.38;2.15;;;21.50;99.90;;;;;;5107837;27;20202;-71
2022/05/22 12:27:32;;;;;;;4.32;1.40;;;21.30;99.90;;;;;;5088776;27;20214;-72
2022/05/22 12:30:06;;;;;;;2.90;1.63;;;21.10;99.90;;;;;;5113292;27;20628;-72
2022/05/22 12:32:43;;;;;;;4.93;2.47;;;21.50;99.90;;;;;;5117521;27;20169;-72
2022/05/22 12:35:09;;;;;;;2.92;1.38;;;21.80;99.90;;;;;;5083158;28;20162;-71
2022/05/22 12:37:50;;;;;;;3.80;2.03;;;21.50;99.90;;;;;;5117595;27;20225;-71
2022/05/22 12:40:41;;;;;;;4.07;1.60;;;21.60;99.90;;;;;;5116340;27;20197;-72
2022/05/22 12:43:10;;;;;;;8.10;5.18;;;21.70;99.90;;;;;;5100769;28;20205;-71
2022/05/22 12:45:37;;;;;;;6.93;3.40;;;21.40;99.90;;;;;;5113785;27;20227;-72
2022/05/22 12:48:14;;;;;;;2.55;1.23;;;21.70;99.90;;;;;;5114392;27;20878;-71
2022/05/22 12:50:49;;;;;;;1.73;0.90;;;22.00;99.90;;;;;;5112122;27;20205;-71
2022/05/22 12:53:28;;;;;;;3.58;1.20;;;21.90;99.90;;;;;;5111993;27;20164;-71
2022/05/22 12:55:54;;;;;;;2.50;1.10;;;21.90;99.90;;;;;;5101053;28;20178;-72
2022/05/22 12:58:42;;;;;;;4.30;2.65;;;21.60;99.90;;;;;;5100112;28;20268;-72
2022/05/22 13:01:27;;;;;;;4.15;2.17;;;21.70;99.90;;;;;;5082268;28;20210;-72
2022/05/22 13:03:57;;;;;;;4.47;1.88;;;21.70;99.90;;;;;;5099772;28;20205;-72
2022/05/22 13:06:32;;;;;;;5.22;1.80;;;21.50;99.90;;;;;;5107295;28;20214;-71
2022/05/22 13:09:00;;;;;;;2.65;1.48;;;21.60;99.90;;;;;;5095054;28;20206;-73
2022/05/22 13:11:41;;;;;;;4.35;1.40;;;21.20;99.90;;;;;;5101652;28;20170;-71
2022/05/22 13:14:20;;;;;;;2.78;1.63;;;21.40;99.90;;;;;;5113725;27;20205;-72
2022/05/22 13:16:49;;;;;;;3.05;1.00;;;21.40;99.90;;;;;;5099481;28;20210;-71
2022/05/22 13:19:24;;;;;;;5.97;3.60;;;21.20;99.90;;;;;;5099595;28;20297;-71
2022/05/22 13:21:52;;;;;;;7.32;3.38;;;21.20;99.90;;;;;;5081986;28;20200;-71